sensor_id;sensor_type;location;lat;lon;timestamp;P1;durP1;ratioP1;P2;durP2;ratioP2
57101;SDS011;42982;54.558;18.508;2023-08-06T00:00:42;4.18;;;1.60;;
57101;SDS011;42982;54.558;18.508;2023-08-06T00:01:44;5.20;;;1.33;;
57101;SDS011;42982;54.558;18.508;2023-08-06T00:02:46;4.03;;;1.50;;
57101;SDS011;42982;54.558;18.508;2023-08-06T00:03:50;4.50;;;1.83;;
57101;SDS011;42982;54.558;18.508;2023-08-06T00:04:51;2.40;;;1.52;;
57101;SDS011;42982;54.558;18.508;2023-08-06T00:05:53;3.78;;;1.67;;
57101;SDS011;42982;54.558;18.508;2023-08-06T00:06:54;3.30;;;1.30;;
57101;SDS011;42982;54.558;18.508;2023-08-06T00:07:56;6.72;;;1.35;;
57101;SDS011;42982;54.558;18.508;2023-08-06T00:08:58;5.10;;;1.33;;
57101;SDS011;42982;54.558;18.508;2023-08-06T00:09:59;3.00;;;1.35;;
57101;SDS011;42982;54.558;18.508;2023-08-06T00:11:01;4.03;;;1.50;;
57101;SDS011;42982;54.558;18.508;2023-08-06T00:12:03;5.57;;;1.40;;
57101;SDS011;42982;54.558;18.508;2023-08-06T00:13:06;4.50;;;1.58;;
57101;SDS011;42982;54.558;18.508;2023-08-06T00:14:09;5.97;;;1.40;;
57101;SDS011;42982;54.558;18.508;2023-08-06T00:15:11;4.63;;;1.35;;
57101;SDS011;42982;54.558;18.508;2023-08-06T00:16:12;3.67;;;1.55;;
57101;SDS011;42982;54.558;18.508;2023-08-06T00:17:14;4.07;;;1.30;;
57101;SDS011;42982;54.558;18.508;2023-08-06T00:18:16;4.28;;;1.20;;
57101;SDS011;42982;54.558;18.508;2023-08-06T00:19:19;3.90;;;1.38;;
57101;SDS011;42982;54.558;18.508;2023-08-06T00:20:20;5.40;;;2.38;;
57101;SDS011;42982;54.558;18.508;2023-08-06T00:21:23;5.38;;;1.55;;
57101;SDS011;42982;54.558;18.508;2023-08-06T00:22:25;3.47;;;1.33;;
57101;SDS011;42982;54.558;18.508;2023-08-06T00:23:26;2.33;;;1.30;;
57101;SDS011;42982;54.558;18.508;2023-08-06T00:24:28;4.30;;;1.33;;
57101;SDS011;42982;54.558;18.508;2023-08-06T00:25:30;2.72;;;1.30;;
57101;SDS011;42982;54.558;18.508;2023-08-06T00:26:32;2.50;;;1.30;;
57101;SDS011;42982;54.558;18.508;2023-08-06T00:27:33;4.28;;;1.42;;
57101;SDS011;42982;54.558;18.508;2023-08-06T00:28:35;3.15;;;1.50;;
57101;SDS011;42982;54.558;18.508;2023-08-06T00:29:37;4.00;;;1.50;;
57101;SDS011;42982;54.558;18.508;2023-08-06T00:30:38;2.28;;;1.38;;
57101;SDS011;42982;54.558;18.508;2023-08-06T00:31:39;3.33;;;1.50;;
57101;SDS011;42982;54.558;18.508;2023-08-06T00:32:41;6.50;;;1.60;;
57101;SDS011;42982;54.558;18.508;2023-08-06T00:33:45;4.60;;;1.38;;
57101;SDS011;42982;54.558;18.508;2023-08-06T00:34:46;6.57;;;1.40;;
57101;SDS011;42982;54.558;18.508;2023-08-06T00:35:50;4.38;;;1.50;;
57101;SDS011;42982;54.558;18.508;2023-08-06T00:36:51;3.88;;;1.50;;
57101;SDS011;42982;54.558;18.508;2023-08-06T00:37:54;4.28;;;1.60;;
57101;SDS011;42982;54.558;18.508;2023-08-06T00:38:56;7.30;;;2.08;;
57101;SDS011;42982;54.558;18.508;2023-08-06T00:39:58;2.80;;;1.38;;
57101;SDS011;42982;54.558;18.508;2023-08-06T00:41:00;4.38;;;1.60;;
57101;SDS011;42982;54.558;18.508;2023-08-06T00:42:02;4.55;;;1.40;;
57101;SDS011;42982;54.558;18.508;2023-08-06T00:43:05;3.22;;;1.70;;
57101;SDS011;42982;54.558;18.508;2023-08-06T00:44:06;4.50;;;1.55;;
57101;SDS011;42982;54.558;18.508;2023-08-06T00:45:07;4.50;;;1.25;;
57101;SDS011;42982;54.558;18.508;2023-08-06T00:46:10;4.55;;;1.60;;
57101;SDS011;42982;54.558;18.508;2023-08-06T00:47:12;5.18;;;1.50;;
57101;SDS011;42982;54.558;18.508;2023-08-06T00:48:14;3.88;;;1.65;;
57101;SDS011;42982;54.558;18.508;2023-08-06T00:49:16;5.63;;;1.63;;
57101;SDS011;42982;54.558;18.508;2023-08-06T00:50:17;3.78;;;1.40;;
57101;SDS011;42982;54.558;18.508;2023-08-06T00:51:23;2.83;;;1.40;;
57101;SDS011;42982;54.558;18.508;2023-08-06T00:52:27;4.43;;;1.50;;
57101;SDS011;42982;54.558;18.508;2023-08-06T00:53:30;3.15;;;1.38;;
57101;SDS011;42982;54.558;18.508;2023-08-06T00:54:34;5.40;;;1.40;;
57101;SDS011;42982;54.558;18.508;2023-08-06T00:55:39;3.08;;;1.50;;
57101;SDS011;42982;54.558;18.508;2023-08-06T00:56:42;3.38;;;1.42;;
57101;SDS011;42982;54.558;18.508;2023-08-06T00:57:43;8.48;;;1.52;;
57101;SDS011;42982;54.558;18.508;2023-08-06T00:58:46;5.05;;;1.60;;
57101;SDS011;42982;54.558;18.508;2023-08-06T00:59:48;6.57;;;1.70;;
57101;SDS011;42982;54.558;18.508;2023-08-06T01:00:50;5.10;;;1.40;;
57101;SDS011;42982;54.558;18.508;2023-08-06T01:01:52;2.70;;;1.42;;
57101;SDS011;42982;54.558;18.508;2023-08-06T01:02:54;6.75;;;1.80;;
57101;SDS011;42982;54.558;18.508;2023-08-06T01:03:55;5.10;;;1.45;;
57101;SDS011;42982;54.558;18.508;2023-08-06T01:04:59;2.15;;;1.27;;
57101;SDS011;42982;54.558;18.508;2023-08-06T01:06:01;2.90;;;1.60;;
57101;SDS011;42982;54.558;18.508;2023-08-06T01:07:06;4.22;;;1.42;;
57101;SDS011;42982;54.558;18.508;2023-08-06T01:08:42;2.78;;;1.50;;
57101;SDS011;42982;54.558;18.508;2023-08-06T01:11:38;4.00;;;1.60;;
57101;SDS011;42982;54.558;18.508;2023-08-06T01:13:06;3.70;;;1.48;;
57101;SDS011;42982;54.558;18.508;2023-08-06T01:14:15;3.42;;;1.85;;
57101;SDS011;42982;54.558;18.508;2023-08-06T01:15:31;5.72;;;1.80;;
57101;SDS011;42982;54.558;18.508;2023-08-06T01:16:37;2.97;;;1.70;;
57101;SDS011;42982;54.558;18.508;2023-08-06T01:17:40;3.92;;;1.70;;
57101;SDS011;42982;54.558;18.508;2023-08-06T01:18:43;3.50;;;1.50;;
57101;SDS011;42982;54.558;18.508;2023-08-06T01:19:46;5.70;;;1.75;;
57101;SDS011;42982;54.558;18.508;2023-08-06T01:20:48;5.53;;;1.63;;
57101;SDS011;42982;54.558;18.508;2023-08-06T01:21:50;4.95;;;1.60;;
57101;SDS011;42982;54.558;18.508;2023-08-06T01:22:52;5.78;;;1.67;;
57101;SDS011;42982;54.558;18.508;2023-08-06T01:23:54;4.47;;;1.70;;
57101;SDS011;42982;54.558;18.508;2023-08-06T01:24:56;4.72;;;1.70;;
57101;SDS011;42982;54.558;18.508;2023-08-06T01:27:14;4.72;;;1.50;;
57101;SDS011;42982;54.558;18.508;2023-08-06T01:30:41;4.57;;;1.80;;
57101;SDS011;42982;54.558;18.508;2023-08-06T01:31:44;6.70;;;1.85;;
57101;SDS011;42982;54.558;18.508;2023-08-06T01:32:49;4.70;;;1.70;;
57101;SDS011;42982;54.558;18.508;2023-08-06T01:33:53;4.05;;;1.70;;
57101;SDS011;42982;54.558;18.508;2023-08-06T01:34:59;5.47;;;1.50;;
57101;SDS011;42982;54.558;18.508;2023-08-06T01:36:01;2.58;;;1.80;;
57101;SDS011;42982;54.558;18.508;2023-08-06T01:37:07;2.67;;;1.40;;
57101;SDS011;42982;54.558;18.508;2023-08-06T01:38:09;4.75;;;1.88;;
57101;SDS011;42982;54.558;18.508;2023-08-06T01:39:12;4.35;;;1.90;;
57101;SDS011;42982;54.558;18.508;2023-08-06T01:40:14;6.10;;;2.00;;
57101;SDS011;42982;54.558;18.508;2023-08-06T01:41:19;3.55;;;1.60;;
57101;SDS011;42982;54.558;18.508;2023-08-06T01:42:21;8.23;;;2.05;;
57101;SDS011;42982;54.558;18.508;2023-08-06T01:43:25;6.32;;;1.92;;
57101;SDS011;42982;54.558;18.508;2023-08-06T01:44:27;3.67;;;1.67;;
57101;SDS011;42982;54.558;18.508;2023-08-06T01:45:28;6.85;;;2.75;;
57101;SDS011;42982;54.558;18.508;2023-08-06T01:46:30;5.32;;;1.90;;
57101;SDS011;42982;54.558;18.508;2023-08-06T01:47:32;6.75;;;2.13;;
57101;SDS011;42982;54.558;18.508;2023-08-06T01:48:33;6.88;;;2.33;;
57101;SDS011;42982;54.558;18.508;2023-08-06T01:49:35;3.63;;;1.73;;
57101;SDS011;42982;54.558;18.508;2023-08-06T01:50:36;5.25;;;2.25;;
57101;SDS011;42982;54.558;18.508;2023-08-06T01:51:39;4.07;;;1.75;;
57101;SDS011;42982;54.558;18.508;2023-08-06T01:52:40;5.28;;;1.90;;
57101;SDS011;42982;54.558;18.508;2023-08-06T01:53:43;3.88;;;1.85;;
57101;SDS011;42982;54.558;18.508;2023-08-06T01:54:45;5.38;;;1.90;;
57101;SDS011;42982;54.558;18.508;2023-08-06T01:55:49;4.47;;;1.73;;
57101;SDS011;42982;54.558;18.508;2023-08-06T01:56:51;3.67;;;1.50;;
57101;SDS011;42982;54.558;18.508;2023-08-06T01:57:54;3.60;;;1.67;;
57101;SDS011;42982;54.558;18.508;2023-08-06T01:58:55;6.55;;;1.98;;
57101;SDS011;42982;54.558;18.508;2023-08-06T01:59:57;4.95;;;1.98;;
57101;SDS011;42982;54.558;18.508;2023-08-06T02:01:02;4.70;;;1.60;;
57101;SDS011;42982;54.558;18.508;2023-08-06T02:02:06;4.85;;;2.10;;
57101;SDS011;42982;54.558;18.508;2023-08-06T02:03:09;4.40;;;1.75;;
57101;SDS011;42982;54.558;18.508;2023-08-06T02:04:11;3.47;;;1.70;;
57101;SDS011;42982;54.558;18.508;2023-08-06T02:05:13;6.20;;;1.95;;
57101;SDS011;42982;54.558;18.508;2023-08-06T02:06:15;5.70;;;1.90;;
57101;SDS011;42982;54.558;18.508;2023-08-06T02:07:16;4.05;;;2.38;;
57101;SDS011;42982;54.558;18.508;2023-08-06T02:08:19;7.00;;;1.88;;
57101;SDS011;42982;54.558;18.508;2023-08-06T02:09:21;4.88;;;2.00;;
57101;SDS011;42982;54.558;18.508;2023-08-06T02:10:23;2.78;;;1.80;;
57101;SDS011;42982;54.558;18.508;2023-08-06T02:11:24;6.45;;;1.70;;
57101;SDS011;42982;54.558;18.508;2023-08-06T02:12:27;3.67;;;1.77;;
57101;SDS011;42982;54.558;18.508;2023-08-06T02:13:32;6.07;;;1.92;;
57101;SDS011;42982;54.558;18.508;2023-08-06T02:14:34;3.22;;;1.90;;
57101;SDS011;42982;54.558;18.508;2023-08-06T02:15:41;4.70;;;2.00;;
57101;SDS011;42982;54.558;18.508;2023-08-06T02:16:44;3.55;;;1.77;;
57101;SDS011;42982;54.558;18.508;2023-08-06T02:17:46;8.23;;;2.38;;
57101;SDS011;42982;54.558;18.508;2023-08-06T02:18:48;3.65;;;1.90;;
57101;SDS011;42982;54.558;18.508;2023-08-06T02:19:59;5.93;;;2.20;;
57101;SDS011;42982;54.558;18.508;2023-08-06T02:21:02;6.80;;;2.25;;
57101;SDS011;42982;54.558;18.508;2023-08-06T02:22:03;6.50;;;2.00;;
57101;SDS011;42982;54.558;18.508;2023-08-06T02:23:06;3.42;;;2.10;;
57101;SDS011;42982;54.558;18.508;2023-08-06T02:24:10;4.50;;;1.98;;
57101;SDS011;42982;54.558;18.508;2023-08-06T02:25:12;8.38;;;2.20;;
57101;SDS011;42982;54.558;18.508;2023-08-06T02:26:13;12.18;;;2.20;;
57101;SDS011;42982;54.558;18.508;2023-08-06T02:27:16;6.18;;;2.45;;
57101;SDS011;42982;54.558;18.508;2023-08-06T02:28:17;6.22;;;2.58;;
57101;SDS011;42982;54.558;18.508;2023-08-06T02:29:19;3.63;;;2.13;;
57101;SDS011;42982;54.558;18.508;2023-08-06T02:30:23;5.43;;;2.40;;
57101;SDS011;42982;54.558;18.508;2023-08-06T02:31:25;5.10;;;2.20;;
57101;SDS011;42982;54.558;18.508;2023-08-06T02:32:27;5.05;;;2.28;;
57101;SDS011;42982;54.558;18.508;2023-08-06T02:33:33;5.50;;;2.50;;
57101;SDS011;42982;54.558;18.508;2023-08-06T02:34:35;7.10;;;2.50;;
57101;SDS011;42982;54.558;18.508;2023-08-06T02:35:36;6.78;;;2.53;;
57101;SDS011;42982;54.558;18.508;2023-08-06T02:36:38;5.85;;;2.60;;
57101;SDS011;42982;54.558;18.508;2023-08-06T02:37:42;5.90;;;2.40;;
57101;SDS011;42982;54.558;18.508;2023-08-06T02:38:44;6.70;;;2.70;;
57101;SDS011;42982;54.558;18.508;2023-08-06T02:39:46;5.60;;;2.70;;
57101;SDS011;42982;54.558;18.508;2023-08-06T02:40:50;4.45;;;2.17;;
57101;SDS011;42982;54.558;18.508;2023-08-06T02:41:52;4.50;;;2.47;;
57101;SDS011;42982;54.558;18.508;2023-08-06T02:42:56;6.28;;;2.60;;
57101;SDS011;42982;54.558;18.508;2023-08-06T02:43:58;3.78;;;2.30;;
57101;SDS011;42982;54.558;18.508;2023-08-06T02:45:00;6.75;;;2.72;;
57101;SDS011;42982;54.558;18.508;2023-08-06T02:46:03;3.95;;;2.30;;
57101;SDS011;42982;54.558;18.508;2023-08-06T02:47:08;6.28;;;2.70;;
57101;SDS011;42982;54.558;18.508;2023-08-06T02:48:10;7.63;;;2.58;;
57101;SDS011;42982;54.558;18.508;2023-08-06T02:49:12;4.85;;;2.50;;
57101;SDS011;42982;54.558;18.508;2023-08-06T02:50:13;8.00;;;2.65;;
57101;SDS011;42982;54.558;18.508;2023-08-06T02:51:16;6.68;;;2.70;;
57101;SDS011;42982;54.558;18.508;2023-08-06T02:52:20;3.05;;;2.70;;
57101;SDS011;42982;54.558;18.508;2023-08-06T02:53:22;7.10;;;2.97;;
57101;SDS011;42982;54.558;18.508;2023-08-06T02:54:24;4.25;;;2.78;;
57101;SDS011;42982;54.558;18.508;2023-08-06T02:55:27;6.90;;;2.70;;
57101;SDS011;42982;54.558;18.508;2023-08-06T02:56:28;8.18;;;2.85;;
57101;SDS011;42982;54.558;18.508;2023-08-06T02:57:49;5.65;;;2.90;;
57101;SDS011;42982;54.558;18.508;2023-08-06T02:58:52;6.28;;;2.88;;
57101;SDS011;42982;54.558;18.508;2023-08-06T03:00:23;5.93;;;3.20;;
57101;SDS011;42982;54.558;18.508;2023-08-06T03:01:25;4.82;;;2.55;;
57101;SDS011;42982;54.558;18.508;2023-08-06T03:02:33;7.00;;;2.85;;
57101;SDS011;42982;54.558;18.508;2023-08-06T03:03:49;6.70;;;2.83;;
57101;SDS011;42982;54.558;18.508;2023-08-06T03:05:01;7.90;;;3.28;;
57101;SDS011;42982;54.558;18.508;2023-08-06T03:06:08;6.90;;;2.83;;
57101;SDS011;42982;54.558;18.508;2023-08-06T03:07:21;10.35;;;2.78;;
57101;SDS011;42982;54.558;18.508;2023-08-06T03:08:28;7.47;;;3.20;;
57101;SDS011;42982;54.558;18.508;2023-08-06T03:09:31;4.68;;;2.70;;
57101;SDS011;42982;54.558;18.508;2023-08-06T03:10:34;5.93;;;2.67;;
57101;SDS011;42982;54.558;18.508;2023-08-06T03:11:39;8.90;;;3.13;;
57101;SDS011;42982;54.558;18.508;2023-08-06T03:12:45;5.13;;;3.28;;
57101;SDS011;42982;54.558;18.508;2023-08-06T03:13:47;7.53;;;3.00;;
57101;SDS011;42982;54.558;18.508;2023-08-06T03:14:50;7.13;;;3.10;;
57101;SDS011;42982;54.558;18.508;2023-08-06T03:15:52;9.63;;;3.60;;
57101;SDS011;42982;54.558;18.508;2023-08-06T03:16:58;9.55;;;2.55;;
57101;SDS011;42982;54.558;18.508;2023-08-06T03:18:00;6.43;;;2.60;;
57101;SDS011;42982;54.558;18.508;2023-08-06T03:19:02;5.93;;;2.70;;
57101;SDS011;42982;54.558;18.508;2023-08-06T03:20:04;5.57;;;2.30;;
57101;SDS011;42982;54.558;18.508;2023-08-06T03:21:09;8.13;;;2.70;;
57101;SDS011;42982;54.558;18.508;2023-08-06T03:22:11;7.72;;;2.45;;
57101;SDS011;42982;54.558;18.508;2023-08-06T03:23:15;4.78;;;2.45;;
57101;SDS011;42982;54.558;18.508;2023-08-06T03:24:17;4.28;;;2.00;;
57101;SDS011;42982;54.558;18.508;2023-08-06T03:25:20;6.60;;;2.90;;
57101;SDS011;42982;54.558;18.508;2023-08-06T03:26:23;10.68;;;3.00;;
57101;SDS011;42982;54.558;18.508;2023-08-06T03:27:26;4.78;;;2.40;;
57101;SDS011;42982;54.558;18.508;2023-08-06T03:28:27;6.85;;;2.53;;
57101;SDS011;42982;54.558;18.508;2023-08-06T03:29:29;7.95;;;2.35;;
57101;SDS011;42982;54.558;18.508;2023-08-06T03:30:34;7.57;;;2.58;;
57101;SDS011;42982;54.558;18.508;2023-08-06T03:31:37;7.72;;;2.60;;
57101;SDS011;42982;54.558;18.508;2023-08-06T03:32:40;6.72;;;2.75;;
57101;SDS011;42982;54.558;18.508;2023-08-06T03:33:42;7.88;;;3.28;;
57101;SDS011;42982;54.558;18.508;2023-08-06T03:34:49;8.95;;;3.33;;
57101;SDS011;42982;54.558;18.508;2023-08-06T03:35:51;6.00;;;3.10;;
57101;SDS011;42982;54.558;18.508;2023-08-06T03:36:55;10.60;;;3.75;;
57101;SDS011;42982;54.558;18.508;2023-08-06T03:37:56;7.95;;;3.58;;
57101;SDS011;42982;54.558;18.508;2023-08-06T03:38:57;11.07;;;3.42;;
57101;SDS011;42982;54.558;18.508;2023-08-06T03:40:00;10.35;;;3.60;;
57101;SDS011;42982;54.558;18.508;2023-08-06T03:41:04;8.85;;;3.35;;
57101;SDS011;42982;54.558;18.508;2023-08-06T03:42:06;6.22;;;3.53;;
57101;SDS011;42982;54.558;18.508;2023-08-06T03:43:12;9.00;;;3.47;;
57101;SDS011;42982;54.558;18.508;2023-08-06T03:44:18;8.82;;;3.75;;
57101;SDS011;42982;54.558;18.508;2023-08-06T03:45:21;12.85;;;3.83;;
57101;SDS011;42982;54.558;18.508;2023-08-06T03:46:26;8.02;;;3.85;;
57101;SDS011;42982;54.558;18.508;2023-08-06T03:47:28;14.52;;;3.83;;
57101;SDS011;42982;54.558;18.508;2023-08-06T03:48:30;13.93;;;3.80;;
57101;SDS011;42982;54.558;18.508;2023-08-06T03:49:32;9.05;;;3.80;;
57101;SDS011;42982;54.558;18.508;2023-08-06T03:50:37;9.65;;;3.70;;
57101;SDS011;42982;54.558;18.508;2023-08-06T03:51:45;9.20;;;3.40;;
57101;SDS011;42982;54.558;18.508;2023-08-06T03:52:47;9.23;;;3.53;;
57101;SDS011;42982;54.558;18.508;2023-08-06T03:53:48;10.18;;;3.28;;
57101;SDS011;42982;54.558;18.508;2023-08-06T03:54:50;8.85;;;3.05;;
57101;SDS011;42982;54.558;18.508;2023-08-06T03:55:53;12.13;;;3.78;;
57101;SDS011;42982;54.558;18.508;2023-08-06T03:57:00;9.13;;;3.80;;
57101;SDS011;42982;54.558;18.508;2023-08-06T03:58:01;8.38;;;3.35;;
57101;SDS011;42982;54.558;18.508;2023-08-06T03:59:03;11.00;;;3.20;;
57101;SDS011;42982;54.558;18.508;2023-08-06T04:00:07;11.48;;;3.75;;
57101;SDS011;42982;54.558;18.508;2023-08-06T04:01:23;11.15;;;3.28;;
57101;SDS011;42982;54.558;18.508;2023-08-06T04:02:26;9.82;;;3.40;;
57101;SDS011;42982;54.558;18.508;2023-08-06T04:03:28;7.40;;;3.55;;
57101;SDS011;42982;54.558;18.508;2023-08-06T04:04:31;10.65;;;3.58;;
57101;SDS011;42982;54.558;18.508;2023-08-06T04:05:35;6.72;;;2.88;;
57101;SDS011;42982;54.558;18.508;2023-08-06T04:06:37;6.70;;;2.95;;
57101;SDS011;42982;54.558;18.508;2023-08-06T04:07:38;8.93;;;2.95;;
57101;SDS011;42982;54.558;18.508;2023-08-06T04:08:40;7.97;;;3.25;;
57101;SDS011;42982;54.558;18.508;2023-08-06T04:09:55;5.75;;;2.47;;
57101;SDS011;42982;54.558;18.508;2023-08-06T04:10:59;5.72;;;2.88;;
57101;SDS011;42982;54.558;18.508;2023-08-06T04:12:01;7.45;;;2.72;;
57101;SDS011;42982;54.558;18.508;2023-08-06T04:13:04;7.15;;;3.10;;
57101;SDS011;42982;54.558;18.508;2023-08-06T04:14:08;5.15;;;3.00;;
57101;SDS011;42982;54.558;18.508;2023-08-06T04:15:10;11.38;;;3.20;;
57101;SDS011;42982;54.558;18.508;2023-08-06T04:16:12;11.98;;;3.10;;
57101;SDS011;42982;54.558;18.508;2023-08-06T04:17:15;8.07;;;2.72;;
57101;SDS011;42982;54.558;18.508;2023-08-06T04:18:20;6.90;;;2.75;;
57101;SDS011;42982;54.558;18.508;2023-08-06T04:19:22;6.18;;;2.97;;
57101;SDS011;42982;54.558;18.508;2023-08-06T04:20:26;8.98;;;3.15;;
57101;SDS011;42982;54.558;18.508;2023-08-06T04:21:33;7.13;;;2.55;;
57101;SDS011;42982;54.558;18.508;2023-08-06T04:22:39;8.80;;;3.13;;
57101;SDS011;42982;54.558;18.508;2023-08-06T04:23:44;10.48;;;2.97;;
57101;SDS011;42982;54.558;18.508;2023-08-06T04:24:46;10.80;;;3.50;;
57101;SDS011;42982;54.558;18.508;2023-08-06T04:25:48;7.68;;;2.80;;
57101;SDS011;42982;54.558;18.508;2023-08-06T04:26:49;10.98;;;3.40;;
57101;SDS011;42982;54.558;18.508;2023-08-06T04:27:51;8.27;;;2.83;;
57101;SDS011;42982;54.558;18.508;2023-08-06T04:28:53;9.20;;;3.22;;
57101;SDS011;42982;54.558;18.508;2023-08-06T04:29:55;8.68;;;3.10;;
57101;SDS011;42982;54.558;18.508;2023-08-06T04:30:59;8.00;;;3.10;;
57101;SDS011;42982;54.558;18.508;2023-08-06T04:32:04;7.30;;;3.00;;
57101;SDS011;42982;54.558;18.508;2023-08-06T04:33:06;11.18;;;3.20;;
57101;SDS011;42982;54.558;18.508;2023-08-06T04:34:08;8.50;;;3.00;;
57101;SDS011;42982;54.558;18.508;2023-08-06T04:35:13;8.18;;;2.85;;
57101;SDS011;42982;54.558;18.508;2023-08-06T04:36:15;8.23;;;2.67;;
57101;SDS011;42982;54.558;18.508;2023-08-06T04:37:19;11.93;;;2.80;;
57101;SDS011;42982;54.558;18.508;2023-08-06T04:38:22;9.68;;;3.42;;
57101;SDS011;42982;54.558;18.508;2023-08-06T04:39:26;7.60;;;3.13;;
57101;SDS011;42982;54.558;18.508;2023-08-06T04:40:29;9.60;;;3.05;;
57101;SDS011;42982;54.558;18.508;2023-08-06T04:41:33;10.85;;;2.92;;
57101;SDS011;42982;54.558;18.508;2023-08-06T04:42:34;11.35;;;2.83;;
57101;SDS011;42982;54.558;18.508;2023-08-06T04:43:36;7.65;;;3.10;;
57101;SDS011;42982;54.558;18.508;2023-08-06T04:44:44;8.82;;;2.90;;
57101;SDS011;42982;54.558;18.508;2023-08-06T04:45:49;11.07;;;3.08;;
57101;SDS011;42982;54.558;18.508;2023-08-06T04:46:51;12.02;;;3.55;;
57101;SDS011;42982;54.558;18.508;2023-08-06T04:47:54;10.75;;;3.03;;
57101;SDS011;42982;54.558;18.508;2023-08-06T04:48:56;8.07;;;3.10;;
57101;SDS011;42982;54.558;18.508;2023-08-06T04:49:57;7.07;;;2.67;;
57101;SDS011;42982;54.558;18.508;2023-08-06T04:50:59;13.75;;;3.08;;
57101;SDS011;42982;54.558;18.508;2023-08-06T04:52:02;7.22;;;2.65;;
57101;SDS011;42982;54.558;18.508;2023-08-06T04:53:05;6.78;;;2.97;;
57101;SDS011;42982;54.558;18.508;2023-08-06T04:54:12;8.63;;;2.85;;
57101;SDS011;42982;54.558;18.508;2023-08-06T04:55:14;8.40;;;2.60;;
57101;SDS011;42982;54.558;18.508;2023-08-06T04:56:16;6.80;;;3.00;;
57101;SDS011;42982;54.558;18.508;2023-08-06T04:57:17;10.20;;;2.95;;
57101;SDS011;42982;54.558;18.508;2023-08-06T04:58:18;6.30;;;3.00;;
57101;SDS011;42982;54.558;18.508;2023-08-06T04:59:23;4.15;;;2.97;;
57101;SDS011;42982;54.558;18.508;2023-08-06T05:00:25;9.02;;;3.50;;
57101;SDS011;42982;54.558;18.508;2023-08-06T05:01:26;9.35;;;2.90;;
57101;SDS011;42982;54.558;18.508;2023-08-06T05:02:28;7.32;;;3.10;;
57101;SDS011;42982;54.558;18.508;2023-08-06T05:03:32;8.50;;;3.10;;
57101;SDS011;42982;54.558;18.508;2023-08-06T05:04:33;7.53;;;3.00;;
57101;SDS011;42982;54.558;18.508;2023-08-06T05:05:35;11.00;;;3.10;;
57101;SDS011;42982;54.558;18.508;2023-08-06T05:06:37;10.75;;;2.92;;
57101;SDS011;42982;54.558;18.508;2023-08-06T05:07:40;8.05;;;2.95;;
57101;SDS011;42982;54.558;18.508;2023-08-06T05:08:42;7.97;;;2.80;;
57101;SDS011;42982;54.558;18.508;2023-08-06T05:09:44;5.80;;;2.72;;
57101;SDS011;42982;54.558;18.508;2023-08-06T05:10:46;6.72;;;3.10;;
57101;SDS011;42982;54.558;18.508;2023-08-06T05:11:48;8.35;;;2.90;;
57101;SDS011;42982;54.558;18.508;2023-08-06T05:12:50;10.50;;;3.13;;
57101;SDS011;42982;54.558;18.508;2023-08-06T05:13:51;6.38;;;3.00;;
57101;SDS011;42982;54.558;18.508;2023-08-06T05:14:56;7.97;;;3.10;;
57101;SDS011;42982;54.558;18.508;2023-08-06T05:15:57;8.70;;;2.88;;
57101;SDS011;42982;54.558;18.508;2023-08-06T05:17:00;6.97;;;3.20;;
57101;SDS011;42982;54.558;18.508;2023-08-06T05:18:03;8.23;;;3.15;;
57101;SDS011;42982;54.558;18.508;2023-08-06T05:19:05;13.00;;;3.42;;
57101;SDS011;42982;54.558;18.508;2023-08-06T05:20:07;8.13;;;3.58;;
57101;SDS011;42982;54.558;18.508;2023-08-06T05:21:11;9.77;;;3.38;;
57101;SDS011;42982;54.558;18.508;2023-08-06T05:22:13;11.68;;;3.38;;
57101;SDS011;42982;54.558;18.508;2023-08-06T05:23:15;10.85;;;4.40;;
57101;SDS011;42982;54.558;18.508;2023-08-06T05:24:17;13.20;;;3.50;;
57101;SDS011;42982;54.558;18.508;2023-08-06T05:25:20;9.05;;;3.15;;
57101;SDS011;42982;54.558;18.508;2023-08-06T05:26:22;11.20;;;3.53;;
57101;SDS011;42982;54.558;18.508;2023-08-06T05:27:24;8.02;;;3.10;;
57101;SDS011;42982;54.558;18.508;2023-08-06T05:28:26;8.73;;;3.30;;
57101;SDS011;42982;54.558;18.508;2023-08-06T05:29:27;13.23;;;3.50;;
57101;SDS011;42982;54.558;18.508;2023-08-06T05:30:32;23.83;;;3.90;;
57101;SDS011;42982;54.558;18.508;2023-08-06T05:31:33;18.90;;;3.80;;
57101;SDS011;42982;54.558;18.508;2023-08-06T05:32:35;10.75;;;3.47;;
57101;SDS011;42982;54.558;18.508;2023-08-06T05:33:37;10.60;;;3.33;;
57101;SDS011;42982;54.558;18.508;2023-08-06T05:34:39;8.23;;;3.58;;
57101;SDS011;42982;54.558;18.508;2023-08-06T05:35:44;6.88;;;3.60;;
57101;SDS011;42982;54.558;18.508;2023-08-06T05:36:46;10.95;;;4.03;;
57101;SDS011;42982;54.558;18.508;2023-08-06T05:37:47;10.40;;;4.20;;
57101;SDS011;42982;54.558;18.508;2023-08-06T05:38:49;11.88;;;3.78;;
57101;SDS011;42982;54.558;18.508;2023-08-06T05:39:51;9.65;;;3.50;;
57101;SDS011;42982;54.558;18.508;2023-08-06T05:40:56;9.27;;;4.03;;
57101;SDS011;42982;54.558;18.508;2023-08-06T05:41:57;9.00;;;3.97;;
57101;SDS011;42982;54.558;18.508;2023-08-06T05:42:58;13.48;;;4.40;;
57101;SDS011;42982;54.558;18.508;2023-08-06T05:44:02;9.80;;;3.88;;
57101;SDS011;42982;54.558;18.508;2023-08-06T05:45:04;8.63;;;3.67;;
57101;SDS011;42982;54.558;18.508;2023-08-06T05:46:08;6.45;;;3.40;;
57101;SDS011;42982;54.558;18.508;2023-08-06T05:47:15;12.65;;;4.35;;
57101;SDS011;42982;54.558;18.508;2023-08-06T05:48:17;7.63;;;3.60;;
57101;SDS011;42982;54.558;18.508;2023-08-06T05:49:19;8.52;;;3.78;;
57101;SDS011;42982;54.558;18.508;2023-08-06T05:50:23;10.23;;;4.03;;
57101;SDS011;42982;54.558;18.508;2023-08-06T05:51:26;6.95;;;3.70;;
57101;SDS011;42982;54.558;18.508;2023-08-06T05:52:28;8.55;;;3.53;;
57101;SDS011;42982;54.558;18.508;2023-08-06T05:53:30;8.80;;;3.72;;
57101;SDS011;42982;54.558;18.508;2023-08-06T05:54:35;9.60;;;4.00;;
57101;SDS011;42982;54.558;18.508;2023-08-06T05:55:40;12.95;;;4.20;;
57101;SDS011;42982;54.558;18.508;2023-08-06T05:56:42;9.15;;;3.70;;
57101;SDS011;42982;54.558;18.508;2023-08-06T05:57:44;7.05;;;3.70;;
57101;SDS011;42982;54.558;18.508;2023-08-06T05:58:49;9.15;;;3.90;;
57101;SDS011;42982;54.558;18.508;2023-08-06T05:59:53;17.17;;;4.97;;
57101;SDS011;42982;54.558;18.508;2023-08-06T06:00:54;11.60;;;3.90;;
57101;SDS011;42982;54.558;18.508;2023-08-06T06:01:57;12.38;;;4.63;;
57101;SDS011;42982;54.558;18.508;2023-08-06T06:03:02;7.38;;;3.80;;
57101;SDS011;42982;54.558;18.508;2023-08-06T06:04:04;6.50;;;3.60;;
57101;SDS011;42982;54.558;18.508;2023-08-06T06:05:06;6.75;;;3.50;;
57101;SDS011;42982;54.558;18.508;2023-08-06T06:06:10;7.40;;;3.53;;
57101;SDS011;42982;54.558;18.508;2023-08-06T06:07:12;10.68;;;3.53;;
57101;SDS011;42982;54.558;18.508;2023-08-06T06:08:14;11.35;;;3.85;;
57101;SDS011;42982;54.558;18.508;2023-08-06T06:09:16;10.25;;;3.72;;
57101;SDS011;42982;54.558;18.508;2023-08-06T06:10:17;7.78;;;3.92;;
57101;SDS011;42982;54.558;18.508;2023-08-06T06:11:19;10.57;;;4.25;;
57101;SDS011;42982;54.558;18.508;2023-08-06T06:12:22;10.98;;;3.88;;
57101;SDS011;42982;54.558;18.508;2023-08-06T06:13:26;7.68;;;3.90;;
57101;SDS011;42982;54.558;18.508;2023-08-06T06:14:30;12.25;;;3.90;;
57101;SDS011;42982;54.558;18.508;2023-08-06T06:15:32;14.38;;;4.30;;
57101;SDS011;42982;54.558;18.508;2023-08-06T06:16:36;8.88;;;3.78;;
57101;SDS011;42982;54.558;18.508;2023-08-06T06:17:41;11.23;;;4.22;;
57101;SDS011;42982;54.558;18.508;2023-08-06T06:18:43;11.10;;;4.07;;
57101;SDS011;42982;54.558;18.508;2023-08-06T06:19:43;13.35;;;4.30;;
57101;SDS011;42982;54.558;18.508;2023-08-06T06:20:46;9.15;;;4.03;;